Time;durP1;ratioP1;P1;durP2;ratioP2;P2;SDS_P1;SDS_P2;PMS_P1;PMS_P2;Temp;Humidity;BMP_temperature;BMP_pressure;BME280_temperature;BME280_humidity;BME280_pressure;Samples;Min_cycle;Max_cycle;Signal;HPM_P1;HPM_P2
2023/06/13 00:00:00;;;;;;;5.70;3.93;;;20.70;99.90;;;;;;6251269;23;20514;-83
2023/06/13 00:02:28;;;;;;;4.90;3.80;;;20.70;99.90;;;;;;6246775;23;20883;-82
2023/06/13 00:04:57;;;;;;;4.07;3.10;;;20.70;99.90;;;;;;6250073;23;20399;-84
2023/06/13 00:07:24;;;;;;;4.83;4.00;;;20.60;99.90;;;;;;6250769;22;20479;-83
2023/06/13 00:09:50;;;;;;;8.67;3.80;;;20.60;99.90;;;;;;6249619;23;20847;-82
2023/06/13 00:12:20;;;;;;;6.00;4.03;;;20.50;99.90;;;;;;6249886;23;20519;-84
2023/06/13 00:14:50;;;;;;;5.93;3.87;;;20.50;99.90;;;;;;6249381;23;20443;-83
2023/06/13 00:17:17;;;;;;;7.10;3.90;;;20.40;99.90;;;;;;6251333;23;20747;-83
2023/06/13 00:19:45;;;;;;;6.10;3.77;;;20.40;99.90;;;;;;6251358;23;20985;-83
2023/06/13 00:22:14;;;;;;;5.53;3.70;;;20.30;99.90;;;;;;6250218;23;20450;-83
2023/06/13 00:24:41;;;;;;;7.10;4.97;;;20.20;99.90;;;;;;6252222;23;20399;-83
2023/06/13 00:27:08;;;;;;;7.10;4.50;;;20.20;99.90;;;;;;6252672;23;20762;-83
2023/06/13 00:29:35;;;;;;;5.00;3.53;;;20.10;99.90;;;;;;6253048;23;20431;-83
2023/06/13 00:32:02;;;;;;;5.97;3.43;;;20.00;99.90;;;;;;6252455;23;20490;-83
2023/06/13 00:34:29;;;;;;;4.57;3.57;;;20.00;99.90;;;;;;6253165;23;20456;-82
2023/06/13 00:36:55;;;;;;;6.60;4.07;;;19.90;99.90;;;;;;6251485;23;20432;-83
2023/06/13 00:39:24;;;;;;;5.13;4.00;;;19.90;99.90;;;;;;6253000;23;20427;-83
2023/06/13 00:41:51;;;;;;;6.70;3.40;;;19.80;99.90;;;;;;6252186;23;20407;-82
2023/06/13 00:44:17;;;;;;;6.90;3.87;;;19.80;99.90;;;;;;6252003;23;20427;-83
2023/06/13 00:46:46;;;;;;;5.47;3.57;;;19.80;99.90;;;;;;6252470;23;20462;-83
2023/06/13 00:49:15;;;;;;;7.13;3.80;;;19.70;99.90;;;;;;6252850;23;20455;-83
2023/06/13 00:51:44;;;;;;;10.73;4.73;;;19.70;99.90;;;;;;6253191;23;20416;-83
2023/06/13 00:54:16;;;;;;;6.60;4.20;;;19.70;99.90;;;;;;6262463;23;20532;-83
2023/06/13 00:56:45;;;;;;;6.00;3.73;;;19.70;99.90;;;;;;6263913;23;20411;-84
2023/06/13 00:59:14;;;;;;;6.73;4.20;;;19.60;99.90;;;;;;6265361;23;20530;-84
2023/06/13 01:01:42;;;;;;;6.80;4.20;;;19.60;99.90;;;;;;6256829;23;20412;-83
2023/06/13 01:04:09;;;;;;;4.97;3.97;;;19.50;99.90;;;;;;6253598;23;20408;-84
2023/06/13 01:06:40;;;;;;;7.77;4.40;;;19.50;99.90;;;;;;6254732;23;20924;-84
2023/06/13 01:09:11;;;;;;;5.60;4.00;;;19.40;99.90;;;;;;6253257;23;20473;-81
2023/06/13 01:11:47;;;;;;;5.40;4.30;;;19.40;99.90;;;;;;6253274;23;20459;-84
2023/06/13 01:14:24;;;;;;;6.60;4.30;;;19.40;99.90;;;;;;6253106;23;20462;-82
2023/06/13 01:16:57;;;;;;;8.97;4.03;;;19.30;99.90;;;;;;6254657;23;20490;-82
2023/06/13 01:19:34;;;;;;;4.97;3.97;;;19.30;99.90;;;;;;6260418;23;20510;-83
2023/06/13 01:22:03;;;;;;;5.30;4.07;;;19.30;99.90;;;;;;6256511;23;20419;-85
2023/06/13 01:24:40;;;;;;;6.43;3.70;;;19.20;99.90;;;;;;6257164;23;20442;-84
2023/06/13 01:27:12;;;;;;;6.27;3.50;;;19.30;99.90;;;;;;6263428;23;20392;-83
2023/06/13 01:29:40;;;;;;;6.53;3.93;;;19.30;99.90;;;;;;6255152;23;20448;-83
2023/06/13 01:32:09;;;;;;;6.07;3.87;;;19.30;99.90;;;;;;6254393;23;20980;-83
2023/06/13 01:34:36;;;;;;;7.57;4.27;;;19.20;99.90;;;;;;6252430;23;20972;-83
2023/06/13 01:37:03;;;;;;;5.07;3.63;;;19.20;99.90;;;;;;6253068;23;20490;-82
2023/06/13 01:39:33;;;;;;;5.43;3.87;;;19.20;99.90;;;;;;6253552;23;20499;-83
2023/06/13 01:42:00;;;;;;;5.10;4.07;;;19.20;99.90;;;;;;6252924;23;20439;-83
2023/06/13 01:44:29;;;;;;;5.40;3.97;;;19.20;99.90;;;;;;6252345;23;20432;-80
2023/06/13 01:47:17;;;;;;;6.97;4.20;;;19.20;99.90;;;;;;6253456;23;20469;-83
2023/06/13 01:49:50;;;;;;;5.53;3.97;;;19.10;99.90;;;;;;6253166;23;20420;-83
2023/06/13 01:52:25;;;;;;;4.60;3.37;;;19.10;99.90;;;;;;6253562;23;20855;-82
2023/06/13 01:55:03;;;;;;;5.60;4.80;;;19.10;99.90;;;;;;6254340;23;20443;-83
2023/06/13 01:57:37;;;;;;;9.37;3.80;;;19.10;99.90;;;;;;6255018;23;20400;-82
2023/06/13 02:00:09;;;;;;;5.70;4.17;;;19.10;99.90;;;;;;6254908;23;20479;-82
2023/06/13 02:02:36;;;;;;;6.20;4.20;;;19.20;99.90;;;;;;6253234;22;20431;-82
2023/06/13 02:05:03;;;;;;;5.17;4.17;;;19.10;99.90;;;;;;6253736;23;20468;-80
2023/06/13 02:07:32;;;;;;;7.67;4.40;;;19.10;99.90;;;;;;6253882;23;20551;-83
2023/06/13 02:10:01;;;;;;;6.37;3.53;;;19.10;99.90;;;;;;6252413;23;20447;-83
2023/06/13 02:12:28;;;;;;;6.00;4.53;;;19.10;99.90;;;;;;6251797;23;20416;-82
2023/06/13 02:14:56;;;;;;;5.53;4.53;;;19.10;99.90;;;;;;6251703;23;20478;-83
2023/06/13 02:17:25;;;;;;;5.00;3.70;;;19.00;99.90;;;;;;6251761;23;20474;-83
2023/06/13 02:19:51;;;;;;;5.20;3.97;;;19.00;99.90;;;;;;6252283;23;20486;-82
2023/06/13 02:22:18;;;;;;;5.37;4.40;;;19.00;99.90;;;;;;6253743;23;20416;-81
2023/06/13 02:24:47;;;;;;;5.87;4.30;;;19.00;99.90;;;;;;6256260;23;20446;-82
2023/06/13 02:27:13;;;;;;;4.63;3.90;;;19.00;99.90;;;;;;6256236;23;20411;-82
2023/06/13 02:29:40;;;;;;;6.67;4.10;;;19.00;99.90;;;;;;6256023;23;20511;-82
2023/06/13 02:32:08;;;;;;;6.80;4.27;;;18.90;99.90;;;;;;6249991;23;20790;-82
2023/06/13 02:34:36;;;;;;;7.83;4.40;;;18.90;99.90;;;;;;6249422;22;20440;-82
2023/06/13 02:37:03;;;;;;;5.50;4.40;;;18.80;99.90;;;;;;6251910;23;20436;-81
2023/06/13 02:39:29;;;;;;;6.13;4.10;;;18.80;99.90;;;;;;6252232;23;20436;-82
2023/06/13 02:41:56;;;;;;;6.87;3.97;;;18.70;99.90;;;;;;6254145;23;20956;-81
2023/06/13 02:44:23;;;;;;;8.60;3.90;;;18.70;99.90;;;;;;6253355;23;20503;-80
2023/06/13 02:46:50;;;;;;;6.33;4.70;;;18.70;99.90;;;;;;6251327;23;20411;-82
2023/06/13 02:49:16;;;;;;;8.43;5.03;;;18.60;99.90;;;;;;6253516;23;20526;-82
2023/06/13 02:51:45;;;;;;;5.47;4.30;;;18.50;99.90;;;;;;6254625;23;20475;-82
2023/06/13 02:54:12;;;;;;;5.47;4.03;;;18.50;99.90;;;;;;6252955;22;20783;-82
2023/06/13 02:56:39;;;;;;;7.00;4.93;;;18.50;99.90;;;;;;6250252;23;20782;-81
2023/06/13 02:59:05;;;;;;;5.73;4.70;;;18.40;99.90;;;;;;6252953;23;20443;-82
2023/06/13 03:01:32;;;;;;;7.97;4.50;;;18.40;99.90;;;;;;6251839;23;20416;-82
2023/06/13 03:04:00;;;;;;;7.93;5.30;;;18.30;99.90;;;;;;6259008;23;20433;-83
2023/06/13 03:06:30;;;;;;;5.80;4.70;;;18.30;99.90;;;;;;6258791;22;20415;-82
2023/06/13 03:08:59;;;;;;;4.90;4.00;;;18.30;99.90;;;;;;6258672;23;20438;-81
2023/06/13 03:11:25;;;;;;;8.40;5.17;;;18.20;99.90;;;;;;6254844;23;20413;-82
2023/06/13 03:13:52;;;;;;;7.30;4.50;;;18.30;99.90;;;;;;6255223;23;21003;-81
2023/06/13 03:16:21;;;;;;;6.77;4.57;;;18.20;99.90;;;;;;6256644;23;20435;-82
2023/06/13 03:18:48;;;;;;;6.20;5.13;;;18.20;99.90;;;;;;6256455;23;20959;-82
2023/06/13 03:21:15;;;;;;;7.50;4.50;;;18.20;99.90;;;;;;6254926;22;20439;-81
2023/06/13 03:23:42;;;;;;;8.23;4.67;;;18.20;99.90;;;;;;6253680;23;20514;-82
2023/06/13 03:26:10;;;;;;;4.93;3.87;;;18.20;99.90;;;;;;6253742;23;20421;-82
2023/06/13 03:28:37;;;;;;;5.73;4.33;;;18.20;99.90;;;;;;6254531;23;20505;-82
2023/06/13 03:31:04;;;;;;;6.43;4.47;;;18.20;99.90;;;;;;6253880;23;20407;-82
2023/06/13 03:33:31;;;;;;;8.13;5.20;;;18.20;99.90;;;;;;6255313;23;20439;-83
2023/06/13 03:35:57;;;;;;;6.63;4.60;;;18.20;99.90;;;;;;6254644;23;20482;-82
2023/06/13 03:38:27;;;;;;;6.13;4.30;;;18.20;99.90;;;;;;6254839;23;20435;-82
2023/06/13 03:40:54;;;;;;;7.27;4.13;;;18.30;99.90;;;;;;6253319;23;20473;-82
2023/06/13 03:43:22;;;;;;;5.93;4.33;;;18.30;99.90;;;;;;6253162;23;20400;-82
2023/06/13 03:45:49;;;;;;;7.37;4.40;;;18.30;99.90;;;;;;6253804;23;20498;-82
2023/06/13 03:48:16;;;;;;;7.20;4.40;;;18.30;99.90;;;;;;6251294;23;20524;-81
2023/06/13 03:50:43;;;;;;;7.30;4.70;;;18.20;99.90;;;;;;6251587;23;20422;-82
2023/06/13 03:53:10;;;;;;;7.40;4.67;;;18.20;99.90;;;;;;6250887;23;20414;-82
2023/06/13 03:55:37;;;;;;;8.20;4.93;;;18.20;99.90;;;;;;6251986;23;20447;-82
2023/06/13 03:58:04;;;;;;;6.03;4.33;;;18.10;99.90;;;;;;6252244;23;20403;-81
2023/06/13 04:00:33;;;;;;;5.50;4.10;;;18.10;99.90;;;;;;6254737;23;20418;-82
2023/06/13 04:03:00;;;;;;;7.60;4.77;;;18.10;99.90;;;;;;6253586;23;20480;-82
2023/06/13 04:05:27;;;;;;;6.97;4.77;;;18.20;99.90;;;;;;6253538;23;20422;-81
2023/06/13 04:07:54;;;;;;;6.83;5.10;;;18.20;99.90;;;;;;6253569;23;21004;-83
2023/06/13 04:10:21;;;;;;;7.07;4.90;;;18.20;99.90;;;;;;6253938;23;20399;-82
2023/06/13 04:12:48;;;;;;;7.97;4.73;;;18.20;99.90;;;;;;6252078;23;20442;-82
2023/06/13 04:15:16;;;;;;;7.00;4.93;;;18.20;99.90;;;;;;6254799;23;20570;-82
2023/06/13 04:17:44;;;;;;;8.20;5.13;;;18.20;99.90;;;;;;6254380;22;20419;-84
2023/06/13 04:20:14;;;;;;;6.23;4.63;;;18.30;99.90;;;;;;6252254;23;20445;-82
2023/06/13 04:22:43;;;;;;;7.90;5.53;;;18.20;99.90;;;;;;6250060;23;20403;-80
2023/06/13 04:25:10;;;;;;;10.07;5.27;;;18.30;99.90;;;;;;6249048;23;20906;-83
2023/06/13 04:27:38;;;;;;;9.80;4.87;;;18.30;99.90;;;;;;6249524;23;20415;-82
2023/06/13 04:30:06;;;;;;;6.20;5.00;;;18.30;99.90;;;;;;6252558;23;20774;-82
2023/06/13 04:32:33;;;;;;;5.37;4.23;;;18.40;99.90;;;;;;6248648;23;20412;-81
2023/06/13 04:35:01;;;;;;;6.40;4.73;;;18.30;99.90;;;;;;6249330;23;20443;-82
2023/06/13 04:37:30;;;;;;;7.03;4.43;;;18.30;99.90;;;;;;6250106;22;20458;-81
2023/06/13 04:39:57;;;;;;;5.90;4.10;;;18.40;99.90;;;;;;6250783;23;20443;-80
2023/06/13 04:42:27;;;;;;;8.10;5.07;;;18.40;99.90;;;;;;6254974;23;20640;-79
2023/06/13 04:44:55;;;;;;;6.00;4.73;;;18.50;99.90;;;;;;6256330;22;20411;-83
2023/06/13 04:47:24;;;;;;;5.40;4.67;;;18.60;99.90;;;;;;6256369;23;20418;-83
2023/06/13 04:49:58;;;;;;;5.73;4.10;;;18.50;99.90;;;;;;6253598;23;20438;-82
2023/06/13 04:52:26;;;;;;;8.50;5.20;;;18.60;99.90;;;;;;6254314;23;20388;-80
2023/06/13 04:54:54;;;;;;;5.70;4.23;;;18.60;99.90;;;;;;6252465;23;20542;-82
2023/06/13 04:57:21;;;;;;;11.13;5.03;;;18.60;99.90;;;;;;6255393;23;20843;-84
2023/06/13 04:59:48;;;;;;;6.77;4.93;;;18.70;99.90;;;;;;6252758;23;20511;-84
2023/06/13 05:02:15;;;;;;;5.53;4.47;;;18.70;99.90;;;;;;6255586;23;20499;-81
2023/06/13 05:04:42;;;;;;;6.60;4.40;;;18.70;99.90;;;;;;6250933;23;20438;-83
2023/06/13 05:07:09;;;;;;;9.77;5.00;;;18.80;99.90;;;;;;6251066;22;20795;-83
2023/06/13 05:09:37;;;;;;;6.70;4.53;;;18.90;99.90;;;;;;6237905;22;20544;-82
2023/06/13 05:12:06;;;;;;;9.23;4.00;;;18.80;99.90;;;;;;6279573;22;20434;-82
2023/06/13 05:14:32;;;;;;;5.90;4.40;;;18.90;99.90;;;;;;6279467;22;20450;-84
2023/06/13 05:17:05;;;;;;;6.90;5.50;;;19.00;99.90;;;;;;6281573;22;20434;-82
2023/06/13 05:19:34;;;;;;;9.27;5.30;;;19.00;99.90;;;;;;6281239;22;20398;-81
2023/06/13 05:22:02;;;;;;;5.50;4.30;;;19.10;99.90;;;;;;6280117;22;20409;-82
2023/06/13 05:24:30;;;;;;;9.27;5.13;;;19.10;99.90;;;;;;6280628;22;20771;-82
2023/06/13 05:26:58;;;;;;;6.93;4.10;;;19.20;99.90;;;;;;6278710;22;20411;-82
2023/06/13 05:29:25;;;;;;;9.00;4.93;;;19.20;99.90;;;;;;6280548;22;20403;-81
2023/06/13 05:31:53;;;;;;;7.03;4.63;;;19.20;99.90;;;;;;6280576;22;20410;-81
2023/06/13 05:34:20;;;;;;;6.00;4.40;;;19.20;99.90;;;;;;6281208;22;20418;-82
2023/06/13 05:36:47;;;;;;;8.13;4.43;;;19.30;99.90;;;;;;6280687;22;20414;-80
2023/06/13 05:39:15;;;;;;;5.83;4.53;;;19.40;99.90;;;;;;6281072;22;20484;-81
2023/06/13 05:41:42;;;;;;;7.83;4.80;;;19.50;99.90;;;;;;6282499;22;20427;-83
2023/06/13 05:44:10;;;;;;;7.50;4.57;;;19.50;99.90;;;;;;6281687;22;20415;-82
2023/06/13 05:46:37;;;;;;;6.87;4.17;;;19.60;99.90;;;;;;6285136;22;20399;-79
2023/06/13 05:49:03;;;;;;;5.60;4.90;;;19.70;99.90;;;;;;6302631;22;20411;-80
2023/06/13 05:51:31;;;;;;;6.40;4.17;;;19.80;99.90;;;;;;6283400;22;20441;-81
2023/06/13 05:53:58;;;;;;;7.47;5.10;;;19.80;99.90;;;;;;6281124;22;20411;-81
2023/06/13 05:56:25;;;;;;;8.93;4.40;;;19.90;99.90;;;;;;6281189;22;20514;-79
2023/06/13 05:58:52;;;;;;;7.70;4.83;;;19.90;99.90;;;;;;6280911;22;20407;-80
2023/06/13 06:01:21;;;;;;;7.37;5.03;;;20.00;99.90;;;;;;6280244;22;20526;-80
2023/06/13 06:03:47;;;;;;;5.20;4.43;;;20.00;99.90;;;;;;6275503;22;20501;-80
2023/06/13 06:06:14;;;;;;;7.13;4.13;;;20.00;99.90;;;;;;6273670;22;20802;-80
2023/06/13 06:08:41;;;;;;;7.23;4.47;;;20.10;99.90;;;;;;6276101;22;20411;-80
2023/06/13 06:11:08;;;;;;;8.83;5.27;;;20.20;99.90;;;;;;6278115;22;20517;-79
2023/06/13 06:13:35;;;;;;;6.73;4.60;;;20.30;99.90;;;;;;6277201;22;20419;-80
2023/06/13 06:16:02;;;;;;;5.23;4.20;;;20.40;99.90;;;;;;6280356;22;20474;-82
2023/06/13 06:18:30;;;;;;;7.83;4.70;;;20.40;99.90;;;;;;6279219;22;20505;-82
2023/06/13 06:23:32;;;;;;;8.33;4.87;;;20.40;99.90;;;;;;6223880;22;21357;-81
2023/06/13 06:25:59;;;;;;;7.50;4.97;;;20.50;99.90;;;;;;6272309;22;20482;-82
2023/06/13 06:28:26;;;;;;;6.77;4.27;;;20.60;99.90;;;;;;6277938;22;20797;-82
2023/06/13 06:30:52;;;;;;;5.40;3.63;;;20.60;99.90;;;;;;6278914;22;20925;-80
2023/06/13 06:33:20;;;;;;;7.77;4.43;;;20.70;99.90;;;;;;6283445;22;20515;-79
2023/06/13 06:35:48;;;;;;;5.50;3.70;;;20.90;99.90;;;;;;6291359;22;20601;-81
2023/06/13 06:38:15;;;;;;;5.73;4.10;;;21.00;99.90;;;;;;6278478;22;20413;-80
2023/06/13 06:40:42;;;;;;;6.97;4.60;;;21.00;99.90;;;;;;6277570;22;20939;-82
2023/06/13 06:45:45;;;;;;;9.60;4.50;;;21.20;99.90;;;;;;6192649;22;20438;-81
2023/06/13 06:48:12;;;;;;;8.30;4.37;;;21.30;99.90;;;;;;6266543;22;20446;-82
2023/06/13 06:50:39;;;;;;;6.27;4.00;;;21.40;99.90;;;;;;6278491;22;20431;-82
2023/06/13 06:53:07;;;;;;;10.93;4.60;;;21.50;99.90;;;;;;6280790;22;20417;-79
2023/06/13 06:55:34;;;;;;;7.73;4.23;;;21.50;99.90;;;;;;6279348;22;20533;-80
2023/06/13 06:58:01;;;;;;;5.90;4.13;;;21.60;99.90;;;;;;6279519;22;20411;-79
2023/06/13 07:00:27;;;;;;;7.57;4.63;;;21.70;99.90;;;;;;6276415;22;20441;-80
2023/06/13 07:02:55;;;;;;;7.10;4.70;;;21.80;99.90;;;;;;6276734;22;20494;-83
2023/06/13 07:05:21;;;;;;;6.57;4.60;;;21.90;99.90;;;;;;6282596;22;20407;-81
2023/06/13 07:07:48;;;;;;;5.73;4.03;;;22.00;99.90;;;;;;6278412;22;20413;-81
2023/06/13 07:10:17;;;;;;;6.50;4.00;;;22.00;99.90;;;;;;6283736;22;20541;-81
2023/06/13 07:12:43;;;;;;;5.80;3.90;;;22.10;99.90;;;;;;6283212;22;20513;-80
2023/06/13 07:15:10;;;;;;;5.33;3.87;;;22.10;99.90;;;;;;6280897;22;20533;-80
2023/06/13 07:17:37;;;;;;;7.57;3.90;;;22.20;99.90;;;;;;6278741;22;20769;-82
2023/06/13 07:20:08;;;;;;;5.50;4.00;;;22.30;99.90;;;;;;6279509;22;20415;-79
2023/06/13 07:22:35;;;;;;;6.33;4.03;;;22.40;99.90;;;;;;6280153;22;20943;-83
2023/06/13 07:25:03;;;;;;;7.77;4.10;;;22.40;99.90;;;;;;6281760;22;20414;-82
2023/06/13 07:27:31;;;;;;;5.53;4.13;;;22.50;99.90;;;;;;6279928;22;20817;-83
2023/06/13 07:29:58;;;;;;;6.90;4.30;;;22.60;99.90;;;;;;6279844;22;20501;-82
2023/06/13 07:32:26;;;;;;;7.63;4.43;;;22.70;99.90;;;;;;6280517;22;20433;-83
2023/06/13 07:34:53;;;;;;;4.87;3.60;;;22.80;99.90;;;;;;6282531;22;20417;-82
2023/06/13 07:37:20;;;;;;;5.40;4.40;;;22.80;99.90;;;;;;6281034;22;20505;-83
2023/06/13 07:39:47;;;;;;;6.77;4.50;;;22.90;99.90;;;;;;6283143;22;20410;-82
2023/06/13 07:42:14;;;;;;;5.67;4.03;;;23.00;99.90;;;;;;6282074;22;20429;-83
2023/06/13 07:44:42;;;;;;;6.30;4.23;;;23.10;99.90;;;;;;6281228;22;20486;-83
2023/06/13 07:47:09;;;;;;;6.13;4.90;;;23.20;99.90;;;;;;6282812;22;20833;-82
2023/06/13 07:49:36;;;;;;;5.50;4.00;;;23.10;99.90;;;;;;6283992;22;20403;-83
2023/06/13 07:52:04;;;;;;;4.60;3.70;;;23.10;99.90;;;;;;6282367;22;20415;-81
2023/06/13 07:54:31;;;;;;;5.13;3.43;;;23.30;99.90;;;;;;6282532;22;20433;-82
2023/06/13 07:56:58;;;;;;;8.33;4.47;;;23.40;99.90;;;;;;6281783;22;20446;-81
2023/06/13 07:59:25;;;;;;;4.30;3.90;;;23.40;99.90;;;;;;6282508;22;20410;-81
2023/06/13 08:01:53;;;;;;;5.50;3.83;;;23.40;99.90;;;;;;6283034;22;20430;-82
2023/06/13 08:04:20;;;;;;;8.80;4.70;;;23.60;99.90;;;;;;6284746;22;20466;-83
2023/06/13 08:06:47;;;;;;;5.10;4.10;;;23.60;99.90;;;;;;6284017;22;20435;-83
2023/06/13 08:09:14;;;;;;;8.00;4.40;;;23.60;99.90;;;;;;6287308;22;20418;-82
2023/06/13 08:11:41;;;;;;;5.50;4.23;;;23.80;99.90;;;;;;6287710;22;20464;-82
2023/06/13 08:14:12;;;;;;;4.63;4.13;;;23.80;99.90;;;;;;6288356;22;20931;-84
2023/06/13 08:16:39;;;;;;;5.97;4.77;;;23.90;99.90;;;;;;6284776;22;20437;-83
2023/06/13 08:19:07;;;;;;;6.80;4.07;;;24.10;99.90;;;;;;6286029;22;20426;-81
2023/06/13 08:21:34;;;;;;;4.60;3.50;;;24.20;99.90;;;;;;6245868;22;20494;-81
2023/06/13 08:24:01;;;;;;;5.30;4.27;;;24.40;99.90;;;;;;6290261;22;20450;-82
2023/06/13 08:26:32;;;;;;;4.60;4.00;;;24.60;99.90;;;;;;6289741;22;20407;-79
2023/06/13 08:28:59;;;;;;;7.80;4.20;;;24.80;99.90;;;;;;6287800;22;20604;-81
2023/06/13 08:31:26;;;;;;;7.83;4.07;;;25.00;99.90;;;;;;6291445;22;20434;-81
2023/06/13 08:33:52;;;;;;;4.07;3.20;;;25.10;99.90;;;;;;6287458;22;20541;-80
2023/06/13 08:36:21;;;;;;;4.20;3.80;;;25.00;99.90;;;;;;6268617;22;21112;-81
2023/06/13 08:38:48;;;;;;;5.23;3.40;;;25.00;99.90;;;;;;6269758;22;20435;-82
2023/06/13 08:44:47;;;;;;;4.70;3.60;;;25.30;99.90;;;;;;6225427;22;20410;-80
2023/06/13 08:47:16;;;;;;;8.33;4.10;;;25.70;99.90;;;;;;6290233;22;20403;-80
2023/06/13 08:49:43;;;;;;;6.97;3.80;;;25.90;99.90;;;;;;6291750;22;20409;-79
2023/06/13 08:52:13;;;;;;;4.60;4.10;;;25.70;99.90;;;;;;6289710;22;20437;-79
2023/06/13 08:54:43;;;;;;;5.37;3.53;;;26.00;99.90;;;;;;6290972;22;20407;-79
2023/06/13 08:57:16;;;;;;;4.80;3.50;;;26.30;99.90;;;;;;6288815;22;20529;-82
2023/06/13 08:59:45;;;;;;;8.47;4.23;;;26.60;99.90;;;;;;6290833;22;20402;-82
2023/06/13 09:02:15;;;;;;;5.53;4.83;;;26.90;99.90;;;;;;6289983;22;20417;-81
2023/06/13 09:04:46;;;;;;;7.00;3.77;;;27.20;99.90;;;;;;6291921;22;20467;-82
2023/06/13 09:07:16;;;;;;;6.70;4.30;;;27.50;99.90;;;;;;6290566;22;20478;-80
2023/06/13 09:09:44;;;;;;;5.10;4.17;;;27.90;99.90;;;;;;6291805;22;20407;-82
2023/06/13 09:12:13;;;;;;;4.73;3.97;;;28.20;99.90;;;;;;6291727;22;20923;-81
2023/06/13 09:14:40;;;;;;;4.70;3.80;;;28.40;99.90;;;;;;6291137;22;20419;-81
2023/06/13 09:17:09;;;;;;;6.77;4.00;;;28.80;99.90;;;;;;6289520;22;20511;-82
2023/06/13 09:19:36;;;;;;;6.30;3.90;;;29.50;99.90;;;;;;6290812;22;20406;-84
2023/06/13 09:22:03;;;;;;;4.60;3.97;;;29.80;99.90;;;;;;6289498;22;20426;-81
2023/06/13 09:24:31;;;;;;;4.30;3.70;;;30.10;99.90;;;;;;6290365;22;20502;-81
2023/06/13 09:26:58;;;;;;;5.57;4.50;;;30.20;99.90;;;;;;6290074;22;20411;-81
2023/06/13 09:29:33;;;;;;;6.00;3.83;;;30.10;99.90;;;;;;6290662;22;20407;-82
2023/06/13 09:31:59;;;;;;;5.20;4.30;;;30.30;99.90;;;;;;6290475;22;20426;-78
2023/06/13 09:34:28;;;;;;;8.33;4.60;;;30.20;99.90;;;;;;6291672;22;20391;-82
2023/06/13 09:36:57;;;;;;;6.30;4.63;;;30.30;99.90;;;;;;6291172;22;20474;-82
2023/06/13 09:39:24;;;;;;;5.63;3.83;;;30.30;99.90;;;;;;6289585;22;20460;-82
2023/06/13 09:41:55;;;;;;;5.23;4.30;;;30.60;99.90;;;;;;6287400;22;20411;-82
2023/06/13 09:44:24;;;;;;;7.50;4.53;;;30.60;99.90;;;;;;6288466;22;20518;-81
2023/06/13 09:46:51;;;;;;;5.70;4.17;;;30.80;99.90;;;;;;6288601;22;20843;-82
2023/06/13 09:49:18;;;;;;;4.20;3.63;;;30.20;99.90;;;;;;6288638;22;20414;-81
2023/06/13 09:51:45;;;;;;;8.83;4.50;;;30.20;99.90;;;;;;6263678;22;20411;-81
2023/06/13 09:54:13;;;;;;;5.40;4.37;;;30.20;99.90;;;;;;6212761;23;20460;-82
2023/06/13 09:56:41;;;;;;;8.00;4.70;;;30.30;99.90;;;;;;6256734;23;20499;-83
2023/06/13 09:59:15;;;;;;;5.60;4.37;;;30.00;99.90;;;;;;6259296;23;20416;-82
2023/06/13 10:01:43;;;;;;;5.70;4.80;;;29.70;99.90;;;;;;6251519;23;20638;-81
2023/06/13 10:04:10;;;;;;;5.50;3.60;;;30.00;99.90;;;;;;6258082;23;20462;-80
2023/06/13 10:06:37;;;;;;;5.13;4.00;;;30.10;99.90;;;;;;6256004;23;20404;-82
2023/06/13 10:09:04;;;;;;;9.20;4.03;;;30.30;99.90;;;;;;6258162;23;20507;-80
2023/06/13 10:11:34;;;;;;;6.00;4.00;;;29.90;99.90;;;;;;6256650;23;20436;-80
2023/06/13 10:14:06;;;;;;;5.63;4.37;;;30.00;99.90;;;;;;6258238;23;20424;-82
2023/06/13 10:16:38;;;;;;;7.47;4.40;;;30.10;99.90;;;;;;6258540;23;20478;-81
2023/06/13 10:19:06;;;;;;;5.30;4.63;;;30.00;99.90;;;;;;6258663;23;20952;-82
2023/06/13 10:21:34;;;;;;;5.07;4.30;;;30.40;99.90;;;;;;6260451;23;20418;-81
2023/06/13 10:24:02;;;;;;;5.30;4.30;;;30.80;99.90;;;;;;6260784;23;20500;-82
2023/06/13 10:26:36;;;;;;;7.60;4.40;;;31.10;99.90;;;;;;6259147;23;20434;-81
2023/06/13 10:29:32;;;;;;;5.20;3.80;;;30.80;99.90;;;;;;6261178;23;20391;-81
2023/06/13 10:32:16;;;;;;;4.90;4.00;;;30.30;99.90;;;;;;6260340;23;20780;-82
2023/06/13 10:35:02;;;;;;;6.57;3.93;;;29.60;99.90;;;;;;6261248;23;20396;-82
2023/06/13 10:37:53;;;;;;;8.43;5.53;;;29.50;99.90;;;;;;6261316;23;20510;-80
2023/06/13 10:40:46;;;;;;;870.93;219.13;;;29.90;99.90;;;;;;6261145;23;20399;-80
2023/06/13 10:43:17;;;;;;;5.70;3.87;;;30.10;99.90;;;;;;6260768;23;20463;-82
2023/06/13 10:45:46;;;;;;;5.93;4.27;;;30.40;99.90;;;;;;6257919;23;20495;-83
2023/06/13 10:48:14;;;;;;;4.67;4.23;;;30.50;99.90;;;;;;6259754;23;20395;-82
2023/06/13 10:50:43;;;;;;;5.17;4.57;;;30.60;99.90;;;;;;6256529;23;20442;-83
2023/06/13 10:53:10;;;;;;;5.17;3.80;;;30.50;99.90;;;;;;6256748;23;20442;-80
2023/06/13 10:55:40;;;;;;;5.63;4.67;;;30.70;99.90;;;;;;6257150;23;20423;-81
2023/06/13 10:58:12;;;;;;;6.33;4.67;;;30.80;99.90;;;;;;6261334;23;20535;-82
2023/06/13 11:00:40;;;;;;;6.87;4.30;;;31.00;99.90;;;;;;6262984;23;20416;-80
2023/06/13 11:03:08;;;;;;;5.80;4.30;;;31.30;99.90;;;;;;6258575;22;20436;-80
2023/06/13 11:05:47;;;;;;;4.57;3.90;;;31.10;99.90;;;;;;6256210;23;20471;-81
2023/06/13 11:08:15;;;;;;;5.07;4.03;;;31.30;99.90;;;;;;6258920;23;20404;-82
2023/06/13 11:10:43;;;;;;;6.30;4.03;;;31.40;99.90;;;;;;6258340;23;20820;-84
2023/06/13 11:13:18;;;;;;;6.23;4.20;;;31.50;99.90;;;;;;6259389;23;20432;-81
2023/06/13 11:15:45;;;;;;;5.50;4.47;;;31.50;99.90;;;;;;6259635;23;20455;-82
2023/06/13 11:18:34;;;;;;;4.47;3.83;;;31.70;99.90;;;;;;6258096;23;20458;-82
2023/06/13 11:21:03;;;;;;;5.27;4.10;;;31.80;99.90;;;;;;6261822;23;20941;-83
2023/06/13 11:23:50;;;;;;;8.47;4.20;;;32.00;99.90;;;;;;6260626;23;20469;-82
2023/06/13 11:26:20;;;;;;;7.30;4.07;;;32.20;99.90;;;;;;6262054;23;20455;-82
2023/06/13 11:28:48;;;;;;;4.70;4.20;;;32.20;99.90;;;;;;6260847;23;20422;-81
2023/06/13 11:31:15;;;;;;;4.70;4.30;;;32.20;99.90;;;;;;6261674;23;20480;-82
2023/06/13 11:33:46;;;;;;;7.20;4.23;;;31.90;99.90;;;;;;6260141;23;20463;-81
2023/06/13 11:36:16;;;;;;;6.20;4.53;;;32.00;99.90;;;;;;6258574;23;20468;-83
2023/06/13 11:38:46;;;;;;;6.10;4.23;;;32.00;99.90;;;;;;6259575;23;20403;-82
2023/06/13 11:41:13;;;;;;;4.57;4.17;;;32.20;99.90;;;;;;6257369;23;20392;-82
2023/06/13 11:43:40;;;;;;;7.10;4.37;;;32.40;99.90;;;;;;6258465;23;20510;-82
2023/06/13 11:46:07;;;;;;;5.40;4.20;;;32.50;99.90;;;;;;6256763;23;20407;-81
2023/06/13 11:48:33;;;;;;;5.97;4.20;;;32.50;99.90;;;;;;6255527;23;20418;-82
2023/06/13 11:51:15;;;;;;;5.03;4.53;;;32.80;99.90;;;;;;6252163;23;20499;-82
2023/06/13 11:53:53;;;;;;;4.70;4.20;;;32.80;99.90;;;;;;6257681;23;20503;-82
2023/06/13 11:56:21;;;;;;;4.80;4.27;;;33.10;99.90;;;;;;6255678;23;20410;-82
2023/06/13 11:58:49;;;;;;;6.03;4.30;;;33.30;99.90;;;;;;6256233;23;20439;-81
2023/06/13 12:01:17;;;;;;;5.07;4.37;;;32.80;99.90;;;;;;6255141;23;20494;-79
2023/06/13 12:03:45;;;;;;;5.07;3.97;;;33.10;99.90;;;;;;6254035;22;20497;-80
2023/06/13 12:06:12;;;;;;;8.80;4.27;;;33.10;99.90;;;;;;6250249;23;20490;-80
2023/06/13 12:08:44;;;;;;;5.23;4.20;;;33.10;99.90;;;;;;6252711;23;20431;-80
2023/06/13 12:11:12;;;;;;;5.87;4.10;;;33.10;99.90;;;;;;6251358;23;20402;-82
2023/06/13 12:13:39;;;;;;;5.80;4.43;;;33.40;99.90;;;;;;6255291;23;20436;-82
2023/06/13 12:16:07;;;;;;;5.80;4.13;;;33.60;99.90;;;;;;6254453;23;20512;-82
2023/06/13 12:18:33;;;;;;;4.43;3.63;;;33.60;99.90;;;;;;6254562;23;20450;-83
2023/06/13 12:21:01;;;;;;;6.30;4.40;;;33.80;99.90;;;;;;6254284;23;20403;-83
2023/06/13 12:23:29;;;;;;;5.43;3.60;;;33.80;99.90;;;;;;6255420;23;20787;-83
2023/06/13 12:25:57;;;;;;;5.53;3.63;;;34.00;99.90;;;;;;6256369;23;20439;-82
2023/06/13 12:28:25;;;;;;;4.53;3.60;;;34.00;99.90;;;;;;6256680;23;20414;-82
2023/06/13 12:30:57;;;;;;;7.23;4.20;;;34.00;99.90;;;;;;6256217;23;20422;-82
2023/06/13 12:33:33;;;;;;;5.07;3.37;;;34.10;99.90;;;;;;6255797;23;21010;-82
2023/06/13 12:36:01;;;;;;;4.60;3.77;;;34.20;99.90;;;;;;6255612;23;20403;-81
2023/06/13 12:38:29;;;;;;;5.67;3.67;;;34.10;99.90;;;;;;6255697;23;20447;-81
2023/06/13 12:40:58;;;;;;;7.53;4.30;;;34.20;99.90;;;;;;6256372;23;20446;-82
2023/06/13 12:43:25;;;;;;;5.90;4.20;;;34.20;99.90;;;;;;6258209;23;20839;-82
2023/06/13 12:45:53;;;;;;;6.40;3.93;;;34.40;99.90;;;;;;6254446;23;20443;-82
2023/06/13 12:48:20;;;;;;;4.67;3.67;;;34.40;99.90;;;;;;6256274;23;20468;-81
2023/06/13 12:50:47;;;;;;;6.40;4.30;;;34.50;99.90;;;;;;6257039;23;20471;-83
2023/06/13 12:53:18;;;;;;;8.33;4.70;;;34.50;99.90;;;;;;6258201;23;20711;-82
2023/06/13 12:55:45;;;;;;;5.00;4.23;;;34.60;99.90;;;;;;6257126;23;20483;-83
2023/06/13 12:58:42;;;;;;;4.57;3.30;;;34.60;99.90;;;;;;6258078;23;20534;-83
2023/06/13 13:01:09;;;;;;;5.70;4.33;;;34.70;99.90;;;;;;6203888;23;20790;-82